Time;durP1;ratioP1;P1;durP2;ratioP2;P2;SDS_P1;SDS_P2;PMS_P1;PMS_P2;Temp;Humidity;BMP_temperature;BMP_pressure;BME280_temperature;BME280_humidity;BME280_pressure;Samples;Min_cycle;Max_cycle;Signal;HPM_P1;HPM_P2
2023/10/22 00:00:25;;;;;;;6.70;1.20;;;;;;;11.62;80.00;99457.95;78338;1298;3025836;-69
2023/10/22 00:02:51;;;;;;;2.40;1.10;;;;;;;11.43;80.96;99463.36;79480;1297;3012875;-70
2023/10/22 00:05:18;;;;;;;2.70;0.70;;;;;;;11.31;81.80;99461.66;79585;1295;3013081;-67
2023/10/22 00:07:45;;;;;;;4.40;0.90;;;;;;;11.77;80.42;99463.77;78252;1296;3027408;-64
2023/10/22 00:10:12;;;;;;;2.50;1.00;;;;;;;12.30;78.46;99463.63;79530;1298;3013235;-72
2023/10/22 00:12:39;;;;;;;2.70;1.00;;;;;;;12.49;77.57;99462.91;79600;1298;3011800;-69
2023/10/22 00:15:08;;;;;;;3.80;1.30;;;;;;;12.26;77.56;99460.95;78485;1295;3052483;-66
2023/10/22 00:17:35;;;;;;;1.90;1.00;;;;;;;11.93;78.59;99463.25;79464;1298;3014225;-65
2023/10/22 00:20:02;;;;;;;1.90;1.10;;;;;;;11.82;79.15;99466.77;79451;1294;3011602;-67
2023/10/22 00:22:31;;;;;;;2.40;1.10;;;;;;;11.56;79.99;99468.80;78408;1298;3050638;-66
2023/10/22 00:24:57;;;;;;;3.30;1.30;;;;;;;11.38;81.01;99469.46;79652;1296;3019153;-66
2023/10/22 00:27:23;;;;;;;3.30;1.20;;;;;;;11.34;80.75;99468.67;79583;1298;3011643;-67
2023/10/22 00:29:51;;;;;;;3.40;1.10;;;;;;;11.67;80.20;99470.27;78287;1298;3025949;-68
2023/10/22 00:32:18;;;;;;;3.20;1.20;;;;;;;11.91;78.97;99473.62;79821;1295;3013234;-69
2023/10/22 00:34:44;;;;;;;3.60;1.10;;;;;;;12.06;78.50;99470.34;79545;1294;3011644;-66
2023/10/22 00:37:12;;;;;;;4.10;1.30;;;;;;;11.88;78.83;99477.44;78399;1296;3027105;-65
2023/10/22 00:39:38;;;;;;;4.90;1.30;;;;;;;11.69;79.26;99478.86;79447;1300;3018646;-70
2023/10/22 00:42:07;;;;;;;2.50;1.50;;;;;;;11.52;80.06;99483.65;79493;1297;3011627;-67
2023/10/22 00:44:36;;;;;;;2.80;1.30;;;;;;;11.33;81.18;99482.23;78400;1298;3053599;-67
2023/10/22 00:47:03;;;;;;;1.80;1.30;;;;;;;11.23;81.24;99482.50;79511;1296;3018608;-68
2023/10/22 00:49:29;;;;;;;6.00;1.10;;;;;;;11.03;82.41;99485.68;79518;1295;3011749;-68
2023/10/22 00:51:57;;;;;;;2.50;1.00;;;;;;;11.47;81.56;99488.53;78434;1296;3026000;-66
2023/10/22 00:54:27;;;;;;;1.60;1.00;;;;;;;11.97;79.08;99485.50;79398;1298;3013265;-68
2023/10/22 00:56:55;;;;;;;3.50;0.90;;;;;;;11.95;78.61;99491.78;79076;1298;3011713;-68
2023/10/22 00:59:22;;;;;;;2.10;1.00;;;;;;;11.81;79.18;99490.56;79611;1302;3013316;-67
2023/10/22 01:01:49;;;;;;;4.20;1.30;;;;;;;11.66;79.33;99490.46;79484;1301;3013115;-67
2023/10/22 01:04:17;;;;;;;2.10;1.10;;;;;;;11.42;80.04;99490.41;78389;1300;3028834;-66
2023/10/22 01:06:43;;;;;;;4.70;1.50;;;;;;;11.15;81.26;99492.27;79640;1297;3013556;-69
2023/10/22 01:09:11;;;;;;;3.40;1.40;;;;;;;10.98;82.53;99494.95;79569;1296;3011693;-68
2023/10/22 01:11:59;;;;;;;2.30;0.90;;;;;;;10.86;83.22;99496.16;78494;1298;3049083;-64
2023/10/22 01:14:27;;;;;;;4.10;1.30;;;;;;;11.45;81.72;99494.25;78433;1297;3052867;-67
2023/10/22 01:16:53;;;;;;;4.50;1.20;;;;;;;11.92;79.20;99495.98;79841;1298;3012968;-68
2023/10/22 01:19:20;;;;;;;3.20;1.30;;;;;;;11.91;78.76;99497.84;79558;1295;3011817;-66
2023/10/22 01:21:48;;;;;;;2.80;1.00;;;;;;;11.69;79.15;99498.86;78477;1297;3028190;-67
2023/10/22 01:24:14;;;;;;;4.30;1.30;;;;;;;11.51;79.81;99495.67;79665;1295;3012904;-67
2023/10/22 01:26:41;;;;;;;2.70;1.30;;;;;;;11.30;80.67;99498.58;79581;1295;3011558;-67
2023/10/22 01:29:10;;;;;;;4.30;1.20;;;;;;;11.12;81.44;99495.98;78230;1300;3026037;-68
2023/10/22 01:31:37;;;;;;;2.60;1.40;;;;;;;10.93;82.14;99497.83;79694;1295;3013535;-66
2023/10/22 01:34:04;;;;;;;2.20;1.10;;;;;;;10.82;82.67;99495.89;79645;1295;3011927;-68
2023/10/22 01:36:31;;;;;;;2.70;1.30;;;;;;;11.19;82.10;99495.03;78261;1300;3055907;-67
2023/10/22 01:38:58;;;;;;;3.20;1.20;;;;;;;11.64;80.08;99494.11;79591;1298;3012976;-65
2023/10/22 01:41:25;;;;;;;5.90;1.60;;;;;;;11.67;79.39;99498.13;79682;1295;3011891;-70
2023/10/22 01:43:53;;;;;;;2.20;1.30;;;;;;;11.49;80.14;99502.23;78561;1298;3051997;-67
2023/10/22 01:46:21;;;;;;;1.70;1.20;;;;;;;11.34;80.53;99499.86;79666;1295;3013466;-67
2023/10/22 01:48:47;;;;;;;2.40;1.50;;;;;;;11.07;81.54;99499.98;79544;1295;3013032;-66
2023/10/22 01:51:15;;;;;;;2.70;1.50;;;;;;;10.99;81.92;99503.81;78408;1295;3054909;-64
2023/10/22 01:53:42;;;;;;;3.20;1.70;;;;;;;10.78;82.97;99498.07;79518;1296;3013675;-66
2023/10/22 01:56:09;;;;;;;3.50;1.40;;;;;;;10.65;83.79;99496.55;79556;1296;3013397;-66
2023/10/22 01:58:38;;;;;;;5.50;1.40;;;;;;;11.12;82.81;99493.52;78410;1298;3052446;-67
2023/10/22 02:01:04;;;;;;;6.20;1.50;;;;;;;11.56;80.43;99495.48;79551;1298;3011573;-67
2023/10/22 02:03:35;;;;;;;3.60;1.50;;;;;;;11.52;79.87;99493.14;79601;1295;3011798;-69
2023/10/22 02:06:10;;;;;;;3.10;1.40;;;;;;;11.43;80.47;99487.06;78330;1295;3057568;-71
2023/10/22 02:08:39;;;;;;;7.10;1.90;;;;;;;11.24;80.73;99485.39;78267;1296;3048869;-69
2023/10/22 02:11:05;;;;;;;3.90;1.90;;;;;;;10.99;81.79;99485.07;79818;1297;3011761;-69
2023/10/22 02:13:32;;;;;;;7.00;2.10;;;;;;;10.91;82.36;99481.30;79693;1298;3011653;-70
2023/10/22 02:16:00;;;;;;;6.50;2.50;;;;;;;10.78;82.63;99478.61;78320;1300;3051552;-66
2023/10/22 02:18:27;;;;;;;6.30;1.70;;;;;;;10.65;83.46;99475.55;79844;1298;3013337;-69
2023/10/22 02:20:58;;;;;;;6.50;1.80;;;;;;;11.15;82.15;99475.80;79503;1295;3011652;-70
2023/10/22 02:23:27;;;;;;;6.60;1.90;;;;;;;11.57;80.32;99479.67;78358;1296;3049587;-69
2023/10/22 02:25:53;;;;;;;3.00;1.90;;;;;;;11.53;80.06;99480.99;79641;1295;3013566;-72
2023/10/22 02:28:20;;;;;;;4.10;2.40;;;;;;;11.39;80.24;99477.64;79498;1298;3014500;-72
2023/10/22 02:30:48;;;;;;;8.40;2.40;;;;;;;11.17;80.89;99468.70;78426;1299;3053398;-69
2023/10/22 02:33:14;;;;;;;8.20;3.20;;;;;;;10.93;81.85;99460.86;79541;1296;3013010;-69
2023/10/22 02:35:45;;;;;;;7.80;2.80;;;;;;;10.78;82.73;99462.02;79589;1294;3011642;-71
2023/10/22 02:38:14;;;;;;;5.00;1.80;;;;;;;10.66;83.56;99462.90;78476;1295;3048599;-69
2023/10/22 02:40:41;;;;;;;5.40;2.30;;;;;;;11.08;82.75;99468.17;79823;1294;3011568;-71
2023/10/22 02:43:08;;;;;;;5.00;2.00;;;;;;;11.40;81.32;99465.49;81410;1292;3012095;-70
2023/10/22 02:45:35;;;;;;;4.90;2.30;;;;;;;11.42;80.79;99469.02;79097;1297;3053147;-68
2023/10/22 02:48:02;;;;;;;3.90;2.20;;;;;;;11.26;81.27;99479.17;79640;1292;3013697;-69
2023/10/22 02:50:29;;;;;;;5.60;2.70;;;;;;;11.04;81.79;99484.56;79733;1297;3013432;-72
2023/10/22 02:52:57;;;;;;;6.10;3.60;;;;;;;10.85;82.61;99484.14;78373;1293;3026696;-71
2023/10/22 02:55:24;;;;;;;8.00;3.40;;;;;;;10.67;83.65;99484.37;79881;1292;3013384;-71
2023/10/22 02:57:50;;;;;;;4.50;2.40;;;;;;;10.62;84.05;99498.31;79766;1297;3011924;-71
2023/10/22 03:00:19;;;;;;;9.80;2.90;;;;;;;11.09;83.18;99494.43;78470;1298;3053221;-68
2023/10/22 03:02:45;;;;;;;8.50;2.70;;;;;;;11.56;81.05;99499.04;79845;1294;3013123;-68
2023/10/22 03:05:12;;;;;;;5.60;2.80;;;;;;;11.48;80.72;99501.23;79682;1296;3011775;-67
2023/10/22 03:07:41;;;;;;;6.50;2.90;;;;;;;11.35;81.24;99497.55;78519;1296;3048771;-66
2023/10/22 03:10:09;;;;;;;3.90;2.50;;;;;;;11.19;81.81;99497.85;79752;1293;3013905;-68
2023/10/22 03:12:38;;;;;;;8.20;3.80;;;;;;;10.98;82.77;99498.44;79230;1296;3013290;-67
2023/10/22 03:15:07;;;;;;;6.80;3.00;;;;;;;10.82;83.51;99499.95;79774;1297;3013281;-68
2023/10/22 03:17:33;;;;;;;6.80;2.80;;;;;;;10.69;84.23;99503.52;79703;1294;3011752;-68
2023/10/22 03:20:03;;;;;;;8.80;2.50;;;;;;;11.12;83.50;99499.33;78597;1292;3051211;-69
2023/10/22 03:22:30;;;;;;;10.30;2.70;;;;;;;11.63;81.31;99503.30;79708;1296;3015707;-67
2023/10/22 03:24:57;;;;;;;7.70;3.20;;;;;;;11.56;80.86;99498.83;79698;1292;3011692;-68
2023/10/22 03:27:25;;;;;;;6.30;3.40;;;;;;;11.40;81.61;99504.02;78397;1297;3049495;-69
2023/10/22 03:29:51;;;;;;;9.50;3.60;;;;;;;11.13;82.73;99495.77;79783;1294;3021206;-68
2023/10/22 03:32:18;;;;;;;8.00;3.50;;;;;;;11.02;83.38;99501.36;79733;1292;3011711;-67
2023/10/22 03:34:46;;;;;;;10.50;4.00;;;;;;;10.82;84.48;99497.98;78418;1292;3026474;-69
2023/10/22 03:37:12;;;;;;;6.00;3.30;;;;;;;10.78;85.05;99496.33;79762;1294;3013315;-71
2023/10/22 03:39:41;;;;;;;8.90;4.20;;;;;;;11.19;83.98;99499.58;79853;1292;3011830;-70
2023/10/22 03:42:08;;;;;;;8.20;3.60;;;;;;;11.59;82.24;99494.41;78412;1294;3050332;-71
2023/10/22 03:44:35;;;;;;;6.50;3.90;;;;;;;11.60;82.12;99494.55;79806;1294;3018969;-68
2023/10/22 03:47:02;;;;;;;10.30;3.60;;;;;;;11.45;82.39;99494.81;79867;1293;3013206;-69
2023/10/22 03:49:31;;;;;;;10.00;3.80;;;;;;;11.26;83.18;99501.62;78307;1293;3050854;-67
2023/10/22 03:51:58;;;;;;;10.30;4.20;;;;;;;11.01;84.54;99503.17;79725;1294;3013751;-69
2023/10/22 03:54:24;;;;;;;10.60;4.80;;;;;;;10.88;85.51;99503.58;79797;1295;3011347;-67
2023/10/22 03:56:52;;;;;;;11.40;4.20;;;;;;;10.81;86.23;99496.50;78436;1295;3027061;-69
2023/10/22 03:59:18;;;;;;;12.10;4.60;;;;;;;11.16;85.66;99502.39;79754;1294;3013897;-69
2023/10/22 04:01:45;;;;;;;11.20;4.30;;;;;;;11.70;83.23;99501.95;79611;1293;3012056;-68
2023/10/22 04:04:13;;;;;;;10.50;5.00;;;;;;;11.67;82.79;99503.73;78416;1297;3025149;-68
2023/10/22 04:06:39;;;;;;;11.10;4.60;;;;;;;11.57;83.08;99502.48;79604;1297;3013690;-69
2023/10/22 04:09:06;;;;;;;16.70;5.60;;;;;;;11.27;84.59;99505.08;79625;1295;3013219;-69
2023/10/22 04:11:33;;;;;;;12.40;5.90;;;;;;;11.16;85.30;99508.55;78705;1292;3028323;-69
2023/10/22 04:14:00;;;;;;;17.70;5.70;;;;;;;11.02;85.75;99508.52;79734;1292;3013659;-70
2023/10/22 04:16:27;;;;;;;11.90;5.00;;;;;;;10.93;86.66;99511.15;79771;1297;3013091;-67
2023/10/22 04:18:56;;;;;;;16.10;5.10;;;;;;;11.38;85.85;99515.40;79066;1292;3050452;-67
2023/10/22 04:21:22;;;;;;;10.80;4.60;;;;;;;11.85;83.68;99522.08;82072;1294;3012854;-69
2023/10/22 04:23:50;;;;;;;17.30;5.40;;;;;;;11.84;83.16;99525.14;80227;1293;3013122;-71
2023/10/22 04:26:18;;;;;;;13.90;5.40;;;;;;;11.71;83.29;99528.95;78401;1296;3047996;-67
2023/10/22 04:28:45;;;;;;;15.60;6.00;;;;;;;11.47;84.32;99528.71;79812;1297;3018552;-69
2023/10/22 04:31:12;;;;;;;16.20;6.20;;;;;;;11.24;85.60;99533.77;79769;1297;3011722;-69
2023/10/22 04:33:39;;;;;;;16.30;4.30;;;;;;;11.15;86.05;99536.65;78505;1294;3050554;-67
2023/10/22 04:36:14;;;;;;;10.70;4.60;;;;;;;11.46;86.18;99539.64;79816;1292;3019082;-70
2023/10/22 04:38:42;;;;;;;14.30;4.60;;;;;;;11.95;83.82;99541.44;78391;1292;3052266;-66
2023/10/22 04:41:12;;;;;;;17.50;5.40;;;;;;;11.83;83.61;99542.40;79703;1297;3014175;-67
2023/10/22 04:43:41;;;;;;;15.40;6.00;;;;;;;11.60;84.75;99539.61;79176;1297;3011860;-68
2023/10/22 04:46:07;;;;;;;14.60;6.30;;;;;;;11.50;85.23;99544.30;79784;1294;3013574;-68
2023/10/22 04:48:36;;;;;;;14.40;5.60;;;;;;;11.33;86.10;99549.55;79808;1292;3011587;-69
2023/10/22 04:51:06;;;;;;;11.10;4.40;;;;;;;11.13;87.33;99550.77;78461;1292;3057744;-68
2023/10/22 04:53:36;;;;;;;17.30;4.80;;;;;;;11.65;86.47;99553.71;79876;1293;3011847;-70
2023/10/22 04:56:04;;;;;;;18.20;5.90;;;;;;;12.19;83.71;99557.83;78547;1297;3054574;-68
2023/10/22 04:58:32;;;;;;;17.10;5.80;;;;;;;12.11;83.20;99557.10;79739;1295;3013284;-67
2023/10/22 05:00:59;;;;;;;15.50;5.70;;;;;;;11.86;83.93;99558.16;79716;1297;3011911;-71
2023/10/22 05:03:27;;;;;;;15.20;5.80;;;;;;;11.56;85.63;99555.87;78408;1292;3070093;-69
2023/10/22 05:05:54;;;;;;;22.60;6.80;;;;;;;11.45;85.92;99562.33;79825;1292;3012917;-71
2023/10/22 05:08:23;;;;;;;19.40;5.20;;;;;;;11.22;87.54;99561.30;79829;1295;3013038;-72
2023/10/22 05:10:51;;;;;;;19.90;5.60;;;;;;;11.64;86.96;99566.59;78508;1298;3051882;-69
2023/10/22 05:13:17;;;;;;;15.00;5.60;;;;;;;12.12;84.60;99570.76;79754;1294;3013492;-69
2023/10/22 05:15:51;;;;;;;17.60;6.60;;;;;;;12.03;84.23;99577.07;79766;1297;3011805;-67
2023/10/22 05:18:19;;;;;;;21.90;6.20;;;;;;;11.88;84.67;99580.11;78429;1294;3068382;-71
2023/10/22 05:20:45;;;;;;;21.20;6.20;;;;;;;11.59;86.22;99580.74;79812;1292;3013326;-67
2023/10/22 05:23:12;;;;;;;19.60;6.80;;;;;;;11.40;87.11;99580.68;79826;1292;3011587;-69
2023/10/22 05:25:40;;;;;;;18.30;4.90;;;;;;;11.21;88.53;99581.70;78550;1294;3026568;-70
2023/10/22 05:28:07;;;;;;;14.30;5.80;;;;;;;11.66;87.43;99580.98;79802;1297;3013771;-69
2023/10/22 05:30:33;;;;;;;19.30;6.40;;;;;;;12.04;85.50;99579.19;79844;1293;3013179;-68
2023/10/22 05:33:01;;;;;;;14.90;6.10;;;;;;;12.09;84.87;99580.41;78460;1297;3067758;-67
2023/10/22 05:35:28;;;;;;;21.90;6.40;;;;;;;12.06;84.46;99586.41;79763;1292;3012714;-68
2023/10/22 05:37:54;;;;;;;15.70;5.40;;;;;;;11.78;85.41;99590.64;79815;1292;3013010;-75
2023/10/22 05:40:22;;;;;;;18.00;6.00;;;;;;;11.69;86.22;99588.00;78667;1295;3025927;-67
2023/10/22 05:42:49;;;;;;;16.40;4.80;;;;;;;11.57;86.74;99589.98;79758;1297;3013041;-71
2023/10/22 05:45:15;;;;;;;20.60;5.60;;;;;;;11.96;86.40;99583.01;79811;1297;3011271;-70
2023/10/22 05:47:43;;;;;;;19.10;5.00;;;;;;;12.36;84.29;99589.91;78634;1294;3027775;-70
2023/10/22 05:50:10;;;;;;;17.50;5.20;;;;;;;12.35;83.70;99585.01;79955;1292;3015890;-68
2023/10/22 05:52:36;;;;;;;14.70;5.10;;;;;;;12.11;84.59;99587.33;79830;1297;3011518;-70
2023/10/22 05:55:05;;;;;;;14.40;5.20;;;;;;;11.96;85.29;99587.87;78528;1295;3027553;-68
2023/10/22 05:57:34;;;;;;;15.30;5.10;;;;;;;11.65;86.87;99587.37;79742;1297;3011657;-69
2023/10/22 06:00:07;;;;;;;11.80;4.30;;;;;;;11.55;87.75;99586.29;78415;1297;3051920;-70
2023/10/22 06:02:34;;;;;;;14.80;5.00;;;;;;;12.07;86.52;99583.66;79849;1297;3013704;-67
2023/10/22 06:05:01;;;;;;;14.30;4.80;;;;;;;12.40;84.42;99581.52;79975;1295;3011525;-67
2023/10/22 06:07:29;;;;;;;8.90;4.50;;;;;;;12.31;84.14;99582.46;78515;1292;3057597;-68
2023/10/22 06:09:55;;;;;;;19.10;5.50;;;;;;;12.05;85.27;99583.63;79775;1292;3018452;-73
2023/10/22 06:12:22;;;;;;;16.70;5.80;;;;;;;11.95;86.35;99585.15;79803;1297;3011957;-71
2023/10/22 06:14:50;;;;;;;12.80;4.70;;;;;;;11.72;87.20;99582.20;78641;1298;3025789;-69
2023/10/22 06:17:16;;;;;;;12.60;4.70;;;;;;;11.68;87.76;99589.66;79917;1297;3013195;-71
2023/10/22 06:19:43;;;;;;;14.90;4.70;;;;;;;12.24;86.70;99591.92;79770;1293;3012868;-71
2023/10/22 06:22:11;;;;;;;11.80;5.20;;;;;;;12.63;84.01;99587.56;78435;1294;3028402;-72
2023/10/22 06:24:38;;;;;;;12.80;3.90;;;;;;;12.60;83.65;99588.30;79784;1295;3015917;-70
2023/10/22 06:27:04;;;;;;;13.20;4.90;;;;;;;12.32;84.77;99589.95;79839;1294;3011853;-69
2023/10/22 06:29:32;;;;;;;14.40;5.40;;;;;;;12.25;85.16;99595.90;78577;1297;3025247;-72
2023/10/22 06:31:59;;;;;;;10.20;4.60;;;;;;;12.04;85.84;99597.56;79861;1293;3011734;-71
2023/10/22 06:34:25;;;;;;;8.30;4.00;;;;;;;11.93;87.13;99602.80;79709;1294;3012861;-73
2023/10/22 06:36:54;;;;;;;10.10;4.20;;;;;;;12.47;85.92;99598.64;78517;1294;3028885;-71
2023/10/22 06:39:20;;;;;;;13.10;5.00;;;;;;;12.82;83.57;99588.95;79799;1297;3013128;-67
2023/10/22 06:41:47;;;;;;;10.50;4.40;;;;;;;12.92;82.87;99585.61;79749;1293;3012827;-71
2023/10/22 06:44:17;;;;;;;14.40;5.00;;;;;;;12.72;83.41;99590.48;78562;1297;3052398;-68
2023/10/22 06:46:43;;;;;;;15.40;6.20;;;;;;;12.53;84.36;99593.35;79872;1292;3013028;-69
2023/10/22 06:49:10;;;;;;;17.80;5.50;;;;;;;12.44;84.88;99596.89;79726;1297;3013324;-70
2023/10/22 06:51:38;;;;;;;10.50;4.10;;;;;;;12.28;86.01;99597.77;78541;1295;3028448;-67
2023/10/22 06:54:05;;;;;;;14.30;4.60;;;;;;;12.68;85.06;99591.29;79634;1298;3013139;-67
2023/10/22 06:56:32;;;;;;;8.50;4.10;;;;;;;13.11;83.13;99582.71;79809;1292;3011606;-70
2023/10/22 09:20:22;;;;;;;10.20;3.90;;;;;;;15.17;79.39;99540.38;80435;1301;3012859;-71
2023/10/22 09:22:48;;;;;;;8.90;5.00;;;;;;;14.84;80.16;99544.50;79369;1305;3014066;-71
2023/10/22 09:25:18;;;;;;;16.30;5.50;;;;;;;14.61;81.32;99538.14;77896;1304;3049387;-73
2023/10/22 09:27:45;;;;;;;13.70;5.10;;;;;;;14.49;81.89;99536.58;79601;1301;3011617;-74
2023/10/22 09:30:11;;;;;;;10.00;4.80;;;;;;;14.15;83.18;99530.29;79309;1307;3011598;-72
2023/10/22 09:32:45;;;;;;;11.50;4.10;;;;;;;14.03;84.45;99526.41;76205;1307;3087369;-71
2023/10/22 09:35:15;;;;;;;10.80;3.90;;;;;;;14.63;82.67;99520.02;79830;1305;3011693;-68
2023/10/22 09:37:50;;;;;;;10.40;4.30;;;;;;;15.04;80.89;99518.10;78179;1304;3048813;-70
2023/10/22 09:40:19;;;;;;;8.90;4.30;;;;;;;15.05;80.28;99519.04;79035;1304;3011771;-68
2023/10/22 09:42:50;;;;;;;11.20;5.00;;;;;;;15.04;80.40;99520.41;79454;1298;3013458;-68
2023/10/22 09:45:18;;;;;;;10.20;4.70;;;;;;;14.91;80.64;99519.23;78315;1300;3053230;-69
2023/10/22 09:47:47;;;;;;;13.50;5.70;;;;;;;14.80;81.18;99522.04;79442;1300;3013677;-69
2023/10/22 09:50:18;;;;;;;10.70;4.50;;;;;;;14.59;82.18;99520.42;79008;1300;3011570;-68
2023/10/22 09:52:45;;;;;;;10.60;3.50;;;;;;;15.14;80.77;99522.73;79482;1299;3013329;-69
2023/10/22 09:55:15;;;;;;;10.60;4.70;;;;;;;15.52;79.02;99524.37;79706;1295;3013197;-72
2023/10/22 09:57:45;;;;;;;12.60;4.60;;;;;;;15.49;78.41;99520.02;78369;1296;3051422;-72
2023/10/22 10:00:12;;;;;;;14.60;4.90;;;;;;;15.39;79.08;99514.48;79523;1301;3012752;-70
2023/10/22 10:02:42;;;;;;;10.30;5.40;;;;;;;15.32;79.28;99514.15;79640;1295;3011629;-68
2023/10/22 10:05:10;;;;;;;17.80;5.50;;;;;;;15.03;80.52;99514.82;78296;1299;3069189;-66
2023/10/22 10:07:39;;;;;;;12.50;5.70;;;;;;;14.87;81.11;99507.44;79831;1296;3012715;-70
2023/10/22 10:10:09;;;;;;;10.30;4.60;;;;;;;14.67;82.34;99508.64;79038;1297;3011908;-69
2023/10/22 10:12:39;;;;;;;9.40;4.70;;;;;;;15.10;81.12;99501.03;79513;1301;3013500;-68
2023/10/22 10:15:08;;;;;;;15.50;5.40;;;;;;;15.41;79.63;99489.10;78336;1298;3049650;-72
2023/10/22 10:17:50;;;;;;;9.80;5.20;;;;;;;15.50;79.28;99484.99;79561;1302;3011638;-71
2023/10/22 10:20:25;;;;;;;9.30;5.50;;;;;;;15.39;79.32;99482.38;78456;1296;3068661;-68
2023/10/22 10:23:11;;;;;;;16.90;6.00;;;;;;;15.14;80.39;99473.34;78436;1299;3049875;-72
2023/10/22 10:25:42;;;;;;;11.00;5.80;;;;;;;14.94;81.55;99471.60;78403;1296;3057140;-65
2023/10/22 10:28:09;;;;;;;11.70;5.00;;;;;;;14.76;82.14;99468.09;79530;1295;3013065;-72
2023/10/22 10:30:37;;;;;;;14.00;5.10;;;;;;;14.64;83.04;99466.33;79596;1296;3012607;-66
2023/10/22 10:33:05;;;;;;;9.60;4.60;;;;;;;15.13;81.94;99471.17;78274;1300;3051598;-69
2023/10/22 10:35:43;;;;;;;12.10;5.50;;;;;;;15.42;80.18;99472.73;79514;1300;3013529;-68
2023/10/22 10:38:13;;;;;;;11.30;5.20;;;;;;;15.54;79.35;99475.15;78358;1300;3069049;-71
2023/10/22 10:40:44;;;;;;;15.60;5.80;;;;;;;15.42;79.66;99465.86;79621;1298;3011474;-71
2023/10/22 10:43:12;;;;;;;14.70;5.50;;;;;;;15.08;81.36;99465.87;78423;1296;3056520;-71
2023/10/22 10:45:43;;;;;;;14.90;6.00;;;;;;;14.98;81.99;99462.69;79598;1300;3018686;-70
2023/10/22 10:48:48;;;;;;;16.90;6.50;;;;;;;14.88;82.60;99458.14;78356;1300;3049397;-71
2023/10/22 10:51:19;;;;;;;10.10;5.30;;;;;;;14.66;84.24;99458.40;78419;1300;3053754;-72
2023/10/22 10:54:01;;;;;;;9.20;4.80;;;;;;;15.09;82.75;99460.33;79610;1297;3011564;-72
2023/10/22 10:56:50;;;;;;;11.50;4.50;;;;;;;15.43;81.12;99447.61;78330;1298;3069026;-65
2023/10/22 10:59:32;;;;;;;11.50;5.40;;;;;;;15.29;81.59;99450.82;78280;1299;3051642;-67
2023/10/22 11:02:07;;;;;;;10.10;5.60;;;;;;;15.17;82.25;99458.64;78325;1309;3056378;-70
2023/10/22 11:04:37;;;;;;;14.50;6.20;;;;;;;14.90;83.56;99463.12;79027;1298;3011602;-69
2023/10/22 11:07:05;;;;;;;11.10;5.60;;;;;;;14.60;85.11;99457.65;79833;1296;3011584;-66
2023/10/22 11:09:34;;;;;;;10.40;5.20;;;;;;;14.56;85.88;99448.56;79069;1298;3013461;-70
2023/10/22 11:12:05;;;;;;;10.80;5.40;;;;;;;14.95;85.15;99446.46;79484;1301;3013476;-67
2023/10/22 11:14:34;;;;;;;9.70;5.50;;;;;;;15.34;83.09;99448.11;78273;1300;3053069;-69
2023/10/22 11:17:01;;;;;;;11.10;6.00;;;;;;;15.48;82.18;99450.04;79918;1300;3013382;-71
2023/10/22 11:19:29;;;;;;;8.90;5.60;;;;;;;15.38;82.18;99447.42;79482;1296;3011875;-70
2023/10/22 11:21:57;;;;;;;13.40;6.60;;;;;;;15.23;82.95;99451.68;78345;1296;3050672;-68
2023/10/22 11:24:27;;;;;;;14.60;6.80;;;;;;;15.10;83.55;99450.73;79586;1301;3013289;-73
2023/10/22 11:27:04;;;;;;;10.00;5.00;;;;;;;15.00;84.40;99454.22;78297;1298;3053048;-69
2023/10/22 11:29:42;;;;;;;8.60;4.70;;;;;;;15.42;83.55;99456.52;78423;1300;3052119;-76
2023/10/22 11:32:14;;;;;;;8.60;5.30;;;;;;;15.82;81.95;99458.37;78271;1300;3069027;-69
2023/10/22 11:34:56;;;;;;;9.40;5.60;;;;;;;15.64;82.34;99451.54;79669;1300;3011668;-72
2023/10/22 11:37:36;;;;;;;8.70;5.50;;;;;;;15.36;83.77;99445.32;78554;1300;3056424;-72
2023/10/22 11:40:24;;;;;;;7.80;5.70;;;;;;;15.24;84.43;99438.05;78194;1300;3049487;-69
2023/10/22 11:42:52;;;;;;;9.70;5.60;;;;;;;15.05;85.58;99420.85;78340;1299;3055188;-70
2023/10/22 11:45:22;;;;;;;8.50;4.20;;;;;;;14.96;86.52;99423.07;79569;1300;3013624;-73
2023/10/22 11:47:51;;;;;;;15.10;4.70;;;;;;;15.42;85.34;99420.70;78932;1300;3011730;-71
2023/10/22 11:50:34;;;;;;;9.80;4.80;;;;;;;15.84;83.45;99414.48;79513;1302;3013188;-69
2023/10/22 11:53:02;;;;;;;8.30;5.00;;;;;;;15.74;83.52;99417.92;78382;1302;3050329;-68
2023/10/22 11:55:28;;;;;;;9.20;5.40;;;;;;;15.55;84.16;99426.88;79594;1300;3018819;-67
2023/10/22 11:57:55;;;;;;;8.80;5.80;;;;;;;15.38;85.05;99430.85;79573;1300;3012843;-69
2023/10/22 12:00:23;;;;;;;14.10;5.60;;;;;;;15.30;85.56;99433.29;78331;1300;3027608;-70
2023/10/22 12:02:49;;;;;;;8.20;4.00;;;;;;;15.23;86.49;99430.20;79662;1300;3013830;-65
2023/10/22 12:05:16;;;;;;;10.30;4.60;;;;;;;15.68;85.41;99424.40;79753;1298;3011564;-70
2023/10/22 12:07:44;;;;;;;8.70;5.30;;;;;;;15.99;83.31;99420.79;78292;1298;3025816;-68
2023/10/22 12:10:11;;;;;;;9.90;5.90;;;;;;;15.89;83.60;99415.25;79481;1300;3020925;-66
2023/10/22 12:12:38;;;;;;;9.50;5.80;;;;;;;15.69;84.37;99416.50;79575;1300;3011612;-67
2023/10/22 12:15:07;;;;;;;10.70;5.90;;;;;;;15.52;85.19;99419.85;78289;1299;3025787;-72
2023/10/22 12:17:34;;;;;;;12.30;6.30;;;;;;;15.36;86.41;99412.30;79951;1298;3011860;-71
2023/10/22 12:20:01;;;;;;;6.90;4.60;;;;;;;15.28;87.31;99415.82;79544;1297;3013687;-72
2023/10/22 12:22:29;;;;;;;11.80;5.50;;;;;;;15.64;85.87;99413.40;78451;1300;3050813;-69
2023/10/22 12:24:57;;;;;;;9.70;5.20;;;;;;;16.07;84.12;99419.63;79459;1298;3012868;-70
2023/10/22 12:27:23;;;;;;;11.30;5.80;;;;;;;16.12;83.23;99417.98;79511;1296;3011635;-72
2023/10/22 12:29:51;;;;;;;14.00;6.10;;;;;;;15.92;84.21;99414.31;78293;1300;3051578;-69
2023/10/22 12:32:18;;;;;;;15.10;6.60;;;;;;;15.69;85.06;99414.73;79623;1300;3018472;-72
2023/10/22 12:34:45;;;;;;;14.60;6.10;;;;;;;15.48;86.44;99417.17;79527;1298;3011603;-67
2023/10/22 12:37:13;;;;;;;9.10;5.00;;;;;;;15.40;87.17;99414.29;78412;1300;3025900;-73
2023/10/22 12:39:42;;;;;;;9.30;5.20;;;;;;;15.94;85.51;99412.02;79677;1296;3013410;-69
2023/10/22 12:42:10;;;;;;;8.80;5.30;;;;;;;16.24;83.72;99410.36;79545;1298;3012040;-70
2023/10/22 12:44:42;;;;;;;20.20;9.10;;;;;;;16.32;82.93;99407.27;78649;1300;3050110;-70
2023/10/22 12:47:12;;;;;;;14.80;6.50;;;;;;;16.05;83.96;99403.64;79522;1296;3011782;-69
2023/10/22 12:49:44;;;;;;;10.80;6.10;;;;;;;16.00;84.22;99407.07;78366;1301;3053398;-67
2023/10/22 12:52:11;;;;;;;8.90;5.90;;;;;;;15.74;85.10;99405.91;79576;1297;3013165;-68
2023/10/22 12:54:39;;;;;;;11.20;4.70;;;;;;;15.61;86.57;99403.59;78481;1298;3026110;-70
2023/10/22 12:57:06;;;;;;;8.90;5.30;;;;;;;16.05;85.04;99387.95;79621;1295;3012541;-67
2023/10/22 12:59:33;;;;;;;11.70;6.00;;;;;;;16.49;82.76;99374.52;79841;1295;3011924;-69
2023/10/22 13:02:01;;;;;;;11.70;6.10;;;;;;;16.50;82.38;99368.05;78264;1295;3026171;-67
2023/10/22 13:04:28;;;;;;;10.40;5.40;;;;;;;16.28;82.93;99370.06;79475;1301;3013293;-69
2023/10/22 13:06:55;;;;;;;12.80;5.30;;;;;;;16.13;83.70;99374.73;79545;1299;3013661;-69
2023/10/22 13:09:23;;;;;;;11.60;5.80;;;;;;;15.91;84.77;99378.90;78253;1296;3026187;-70
2023/10/22 13:11:49;;;;;;;8.80;5.00;;;;;;;15.91;85.40;99376.61;79954;1295;3018646;-69
2023/10/22 13:14:19;;;;;;;14.20;4.50;;;;;;;16.41;83.76;99372.88;79487;1297;3012680;-71
2023/10/22 13:16:48;;;;;;;13.20;5.30;;;;;;;16.85;81.43;99366.06;78317;1299;3049120;-67
2023/10/22 13:19:15;;;;;;;10.00;6.10;;;;;;;16.67;81.61;99365.52;79574;1297;3013159;-69
2023/10/22 13:21:41;;;;;;;13.30;6.20;;;;;;;16.56;82.05;99362.45;79627;1295;3011853;-67
2023/10/22 13:24:09;;;;;;;12.80;6.50;;;;;;;16.41;82.87;99365.60;78302;1298;3050355;-70
2023/10/22 13:26:35;;;;;;;10.00;6.00;;;;;;;16.36;83.23;99371.02;79696;1298;3013046;-67
2023/10/22 13:29:06;;;;;;;11.60;5.20;;;;;;;16.29;83.92;99369.33;79445;1298;3011736;-69
2023/10/22 13:31:34;;;;;;;9.50;4.80;;;;;;;16.83;82.07;99359.89;78306;1300;3049134;-67
2023/10/22 13:34:01;;;;;;;11.80;4.90;;;;;;;17.30;80.07;99356.79;79614;1300;3018688;-69
2023/10/22 13:36:27;;;;;;;11.40;5.90;;;;;;;17.40;79.15;99353.08;79505;1299;3011633;-68
2023/10/22 13:38:55;;;;;;;12.00;6.10;;;;;;;17.35;79.11;99351.40;78359;1300;3025533;-67